Terminal Aerodrome Forecast
Issued by NWS

Home | Current Version | Previous Version | Text Only | Print | Product List | Glossary On
Versions: 1 2 3 4 5 6 7 8 9 10 11 12 13 14 15 16 17 18 19 20 21 22 23 24 25 26 27 28 29 30 31 32
396
FTUS43 KDVN 301523 AAC
TAFCID
TAF AMD
KCID 301523Z 3015/0112 08017G23KT 4SM -RA BR OVC008
      TEMPO 3015/3018 2SM -RA BR
     FM301900 07017G23KT 6SM BR VCSH OVC006
     FM010200 05014KT 6SM BR VCSH OVC008=

USA.gov is the U.S. government's official web portal to all federal, state and local government web resources and services.